createdAt,value
2017-09-17T00:00:55.054Z,4.50
2017-09-17T00:03:23.979Z,3.90
2017-09-17T00:05:53.700Z,4.60
2017-09-17T00:08:21.797Z,5.63
2017-09-17T00:10:49.946Z,4.10
2017-09-17T00:13:18.641Z,4.10
2017-09-17T00:15:46.776Z,4.30
2017-09-17T00:18:14.908Z,4.67
2017-09-17T00:20:43.160Z,3.93
2017-09-17T00:23:12.155Z,4.20
2017-09-17T00:25:40.273Z,3.80
2017-09-17T00:28:09.573Z,4.20
2017-09-17T00:30:37.922Z,4.57
2017-09-17T00:33:06.024Z,4.00
2017-09-17T00:35:34.274Z,4.10
2017-09-17T00:38:03.523Z,3.73
2017-09-17T00:40:31.598Z,4.27
2017-09-17T00:43:01.856Z,4.87
2017-09-17T00:45:29.972Z,4.53
2017-09-17T00:48:01.755Z,4.27
2017-09-17T00:50:29.842Z,4.10
2017-09-17T00:52:57.916Z,4.50
2017-09-17T00:55:27.077Z,4.67
2017-09-17T00:57:55.157Z,4.23
2017-09-17T01:00:23.236Z,4.97
2017-09-17T01:02:51.322Z,4.70
2017-09-17T01:05:22.675Z,4.17
2017-09-17T01:07:50.774Z,4.00
2017-09-17T01:10:18.868Z,4.70
2017-09-17T01:12:48.050Z,4.20
2017-09-17T01:15:16.162Z,4.73
2017-09-17T01:17:44.243Z,4.27
2017-09-17T01:20:12.975Z,4.47
2017-09-17T01:22:41.067Z,4.27
2017-09-17T01:25:09.948Z,5.17
2017-09-17T01:27:38.855Z,4.57
2017-09-17T01:30:07.705Z,4.70
2017-09-17T01:32:35.810Z,4.30
2017-09-17T01:35:03.876Z,5.00
2017-09-17T01:37:32.755Z,4.70
2017-09-17T01:40:01.615Z,4.67
2017-09-17T01:42:29.715Z,4.87
2017-09-17T01:44:57.809Z,3.87
2017-09-17T01:47:26.674Z,4.47
2017-09-17T01:49:54.755Z,4.07
2017-09-17T01:52:22.844Z,4.10
2017-09-17T01:54:52.799Z,4.10
2017-09-17T01:57:20.871Z,4.23
2017-09-17T01:59:48.975Z,4.07
2017-09-17T02:02:17.068Z,4.20
2017-09-17T02:04:45.268Z,3.53
2017-09-17T02:07:13.335Z,3.93
2017-09-17T02:09:41.449Z,3.97
2017-09-17T02:12:09.546Z,3.90
2017-09-17T02:14:37.643Z,4.47
2017-09-17T02:17:06.495Z,4.47
2017-09-17T02:19:37.724Z,4.20
2017-09-17T02:22:05.791Z,4.80
2017-09-17T02:24:33.865Z,4.33
2017-09-17T02:27:01.973Z,4.00
2017-09-17T02:29:30.051Z,4.17
2017-09-17T02:31:58.916Z,4.10
2017-09-17T02:34:27.018Z,4.07
2017-09-17T02:36:55.863Z,3.43
2017-09-17T02:39:23.949Z,3.43
2017-09-17T02:41:52.988Z,3.73
2017-09-17T02:44:21.099Z,3.20
2017-09-17T02:46:49.217Z,3.60
2017-09-17T02:49:17.302Z,3.60
2017-09-17T02:51:45.404Z,3.33
2017-09-17T02:54:13.483Z,3.37
2017-09-17T02:56:41.803Z,3.93
2017-09-17T02:59:09.864Z,3.33
2017-09-17T03:01:37.959Z,3.57
2017-09-17T03:04:06.036Z,3.40
2017-09-17T03:06:34.104Z,3.47
2017-09-17T03:09:02.220Z,3.37
2017-09-17T03:11:30.287Z,3.50
2017-09-17T03:13:58.399Z,3.37
2017-09-17T03:16:26.524Z,3.40
2017-09-17T03:18:56.890Z,3.77
2017-09-17T03:21:24.977Z,3.63
2017-09-17T03:23:53.094Z,3.60
2017-09-17T03:26:21.183Z,3.53
2017-09-17T03:28:49.255Z,3.70
2017-09-17T03:31:17.357Z,3.80
2017-09-17T03:33:45.441Z,3.60
2017-09-17T03:36:13.548Z,3.20
2017-09-17T03:38:41.628Z,3.47
2017-09-17T03:41:09.700Z,3.40
2017-09-17T03:43:39.140Z,3.33
2017-09-17T03:46:07.220Z,3.57
2017-09-17T03:48:35.335Z,4.47
2017-09-17T03:51:03.749Z,3.30
2017-09-17T03:53:31.856Z,3.17
2017-09-17T03:56:01.864Z,3.50
2017-09-17T03:58:29.935Z,3.37
2017-09-17T04:00:58.049Z,3.67
2017-09-17T04:03:26.267Z,3.20
2017-09-17T04:05:54.632Z,3.30
2017-09-17T04:08:22.764Z,3.20
2017-09-17T04:10:51.621Z,3.63
2017-09-17T04:13:19.696Z,2.80
2017-09-17T04:15:47.771Z,3.67
2017-09-17T04:18:15.863Z,3.80
2017-09-17T04:20:46.643Z,2.90
2017-09-17T04:23:14.718Z,2.97
2017-09-17T04:25:42.809Z,3.00
2017-09-17T04:28:10.872Z,3.20
2017-09-17T04:30:38.986Z,2.90
2017-09-17T04:33:07.084Z,3.60
2017-09-17T04:35:35.196Z,3.47
2017-09-17T04:38:03.268Z,3.20
2017-09-17T04:40:31.368Z,3.33
2017-09-17T04:43:00.233Z,3.27
2017-09-17T04:45:28.680Z,2.93
2017-09-17T04:47:56.788Z,3.47
2017-09-17T04:50:24.887Z,3.07
2017-09-17T04:52:52.996Z,3.10
2017-09-17T04:55:21.084Z,3.67
2017-09-17T04:57:50.273Z,3.10
2017-09-17T05:00:19.416Z,2.83
2017-09-17T05:02:48.633Z,3.03
2017-09-17T05:05:17.502Z,2.93
2017-09-17T05:07:45.618Z,3.10
2017-09-17T05:10:13.711Z,2.83
2017-09-17T05:12:41.795Z,3.10
2017-09-17T05:15:09.883Z,3.57
2017-09-17T05:17:40.029Z,3.20
2017-09-17T05:20:08.889Z,2.77
2017-09-17T05:22:36.991Z,3.23
2017-09-17T05:25:05.858Z,2.80
2017-09-17T05:27:33.972Z,3.23
2017-09-17T05:30:02.092Z,3.73
2017-09-17T05:32:30.176Z,3.30
2017-09-17T05:34:58.277Z,3.70
2017-09-17T05:37:27.128Z,3.97
2017-09-17T05:39:55.231Z,3.60
2017-09-17T05:42:24.140Z,3.37
2017-09-17T05:44:52.238Z,2.87
2017-09-17T05:47:20.347Z,3.40
2017-09-17T05:49:48.419Z,3.20
2017-09-17T05:52:16.519Z,3.63
2017-09-17T05:54:45.420Z,3.10
2017-09-17T05:57:13.499Z,2.97
2017-09-17T05:59:41.604Z,3.40
2017-09-17T06:02:11.768Z,3.80
2017-09-17T06:04:40.620Z,3.60
2017-09-17T06:07:08.722Z,3.50
2017-09-17T06:09:36.827Z,3.80
2017-09-17T06:12:04.943Z,3.90
2017-09-17T06:14:33.968Z,3.20
2017-09-17T06:17:02.831Z,3.47
2017-09-17T06:19:30.935Z,3.40
2017-09-17T06:21:59.019Z,3.50
2017-09-17T06:24:27.131Z,3.63
2017-09-17T06:26:55.215Z,3.70
2017-09-17T06:29:23.324Z,3.53
2017-09-17T06:31:51.416Z,3.77
2017-09-17T06:34:19.485Z,3.43
2017-09-17T06:36:47.597Z,3.10
2017-09-17T06:39:15.692Z,3.40
2017-09-17T06:41:43.771Z,3.13
2017-09-17T06:44:11.843Z,4.07
2017-09-17T06:46:39.943Z,3.73
2017-09-17T06:49:08.055Z,3.60
2017-09-17T06:51:36.144Z,19.77
2017-09-17T06:54:04.248Z,7.50
2017-09-17T06:56:32.322Z,3.83
2017-09-17T06:59:03.197Z,3.60
2017-09-17T07:01:31.293Z,3.77
2017-09-17T07:03:59.432Z,4.20
2017-09-17T07:06:27.606Z,3.60
2017-09-17T07:08:55.769Z,4.10
2017-09-17T07:11:23.897Z,3.70
2017-09-17T07:13:52.000Z,3.93
2017-09-17T07:16:20.115Z,4.03
2017-09-17T07:18:48.285Z,4.30
2017-09-17T07:21:17.783Z,4.13
2017-09-17T07:23:45.900Z,4.90
2017-09-17T07:26:14.127Z,4.50
2017-09-17T07:28:42.254Z,4.80
2017-09-17T07:31:11.065Z,4.10
2017-09-17T07:33:39.980Z,4.67
2017-09-17T07:36:08.080Z,4.47
2017-09-17T07:38:36.208Z,4.67
2017-09-17T07:41:05.501Z,4.60
2017-09-17T07:43:37.224Z,4.23
2017-09-17T07:46:05.380Z,4.80
2017-09-17T07:48:33.463Z,4.73
2017-09-17T07:51:01.628Z,4.23
2017-09-17T07:53:29.896Z,4.27
2017-09-17T07:55:58.949Z,4.60
2017-09-17T07:58:27.817Z,4.07
2017-09-17T08:00:55.976Z,5.00
2017-09-17T08:03:24.157Z,5.07
2017-09-17T08:05:53.271Z,4.73
2017-09-17T08:08:22.132Z,4.77
2017-09-17T08:10:53.964Z,5.20
2017-09-17T08:13:22.952Z,4.33
2017-09-17T08:15:51.092Z,4.70
2017-09-17T08:18:19.185Z,3.93
2017-09-17T08:20:47.892Z,5.40
2017-09-17T08:23:16.400Z,5.00
2017-09-17T08:25:44.575Z,4.60
2017-09-17T08:28:12.699Z,5.00
2017-09-17T08:30:42.475Z,5.57
2017-09-17T08:33:11.960Z,5.37
2017-09-17T08:35:40.906Z,5.43
2017-09-17T08:38:09.145Z,5.43
2017-09-17T08:40:37.257Z,5.30
2017-09-17T08:43:05.662Z,4.77
2017-09-17T08:45:34.058Z,5.97
2017-09-17T08:48:03.692Z,5.37
2017-09-17T08:50:31.809Z,5.20
2017-09-17T08:53:00.101Z,5.73
2017-09-17T08:55:28.224Z,5.47
2017-09-17T08:57:58.115Z,6.40
2017-09-17T09:00:28.384Z,5.40
2017-09-17T09:02:56.508Z,5.53
2017-09-17T09:05:24.833Z,6.20
2017-09-17T09:07:53.357Z,6.33
2017-09-17T09:10:22.328Z,5.60
2017-09-17T09:12:50.523Z,6.63
2017-09-17T09:15:18.651Z,6.40
2017-09-17T09:17:47.097Z,6.77
2017-09-17T09:20:17.220Z,7.70
2017-09-17T09:22:46.421Z,7.20
2017-09-17T09:25:19.877Z,6.43
2017-09-17T09:27:48.044Z,7.33
2017-09-17T09:30:16.210Z,6.97
2017-09-17T09:32:44.515Z,6.93
2017-09-17T09:35:21.643Z,7.70
2017-09-17T09:37:50.708Z,6.53
2017-09-17T09:40:19.889Z,6.80
2017-09-17T09:42:51.501Z,7.53
2017-09-17T09:45:19.697Z,6.87
2017-09-17T09:47:48.713Z,6.10
2017-09-17T09:50:16.836Z,6.90
2017-09-17T09:52:45.172Z,7.40
2017-09-17T09:55:18.777Z,7.80
2017-09-17T09:57:47.963Z,6.50
2017-09-17T10:00:23.835Z,6.60
2017-09-17T10:02:54.000Z,6.87
2017-09-17T10:08:36.725Z,7.30
2017-09-17T10:11:35.491Z,6.90
2017-09-17T10:17:06.019Z,6.17
2017-09-17T10:19:34.647Z,6.60
2017-09-17T10:22:03.369Z,6.63
2017-09-17T10:24:34.367Z,7.10
2017-09-17T10:27:04.173Z,6.20
2017-09-17T10:29:32.444Z,8.93
2017-09-17T10:32:00.548Z,6.57
2017-09-17T10:34:28.822Z,6.13
2017-09-17T10:37:01.220Z,6.00
2017-09-17T10:39:33.806Z,8.23
2017-09-17T10:42:02.313Z,5.20
2017-09-17T10:44:30.880Z,7.00
2017-09-17T10:46:59.624Z,6.00
2017-09-17T10:49:27.733Z,6.43
2017-09-17T10:51:55.963Z,6.40
2017-09-17T10:54:26.265Z,6.90
2017-09-17T10:56:54.987Z,6.20
2017-09-17T10:59:23.901Z,6.23
2017-09-17T11:01:52.050Z,6.17
2017-09-17T11:04:20.279Z,6.40
2017-09-17T11:06:48.906Z,7.80
2017-09-17T11:09:17.437Z,6.47
2017-09-17T11:11:45.729Z,5.60
2017-09-17T11:14:14.808Z,6.90
2017-09-17T11:16:44.333Z,6.90
2017-09-17T11:19:12.633Z,8.37
2017-09-17T11:21:40.845Z,7.43
2017-09-17T11:24:09.789Z,7.40
2017-09-17T11:26:38.229Z,8.60
2017-09-17T11:29:07.237Z,9.17
2017-09-17T11:31:36.221Z,9.13
2017-09-17T11:34:04.396Z,6.90
2017-09-17T11:36:32.818Z,7.70
2017-09-17T11:39:01.742Z,7.37
2017-09-17T11:41:29.892Z,4.67
2017-09-17T11:43:58.886Z,4.67
2017-09-17T11:46:28.007Z,4.60
2017-09-17T11:49:00.915Z,4.70
2017-09-17T11:51:29.855Z,5.13
2017-09-17T11:53:58.221Z,7.87
2017-09-17T11:56:26.617Z,6.33
2017-09-17T11:58:54.831Z,6.00
2017-09-17T12:01:24.558Z,5.67
2017-09-17T12:03:53.058Z,5.30
2017-09-17T12:06:22.255Z,6.90
2017-09-17T12:08:50.498Z,7.93
2017-09-17T12:11:18.625Z,9.20
2017-09-17T12:13:47.514Z,6.37
2017-09-17T12:16:16.393Z,4.83
2017-09-17T12:18:44.836Z,5.50
2017-09-17T12:21:13.185Z,5.43
2017-09-17T12:23:42.832Z,5.30
2017-09-17T12:26:11.099Z,4.80
2017-09-17T12:28:39.220Z,4.70
2017-09-17T12:31:07.583Z,4.30
2017-09-17T12:33:35.710Z,4.07
2017-09-17T12:36:04.655Z,3.60
2017-09-17T12:38:33.697Z,2.20
2017-09-17T12:41:07.698Z,3.07
2017-09-17T12:43:35.840Z,2.40
2017-09-17T12:46:04.703Z,4.60
2017-09-17T12:48:32.891Z,2.60
2017-09-17T12:51:03.057Z,2.90
2017-09-17T12:53:31.220Z,2.37
2017-09-17T12:55:59.482Z,2.20
2017-09-17T12:58:27.577Z,1.80
2017-09-17T13:00:55.699Z,2.53
2017-09-17T13:03:23.962Z,2.53
2017-09-17T13:05:53.688Z,2.13
2017-09-17T13:08:22.716Z,2.37
2017-09-17T13:10:50.856Z,2.60
2017-09-17T13:13:19.016Z,2.30
2017-09-17T13:15:48.158Z,2.37
2017-09-17T13:18:16.661Z,2.00
2017-09-17T13:20:44.796Z,2.37
2017-09-17T13:23:12.903Z,2.50
2017-09-17T13:25:42.756Z,2.50
2017-09-17T13:28:10.876Z,2.13
2017-09-17T13:30:39.023Z,2.60
2017-09-17T13:33:07.192Z,2.43
2017-09-17T13:35:37.794Z,2.40
2017-09-17T13:38:05.997Z,2.57
2017-09-17T13:40:34.363Z,2.83
2017-09-17T13:43:03.410Z,2.30
2017-09-17T13:45:31.536Z,2.27
2017-09-17T13:47:59.643Z,3.50
2017-09-17T13:50:27.823Z,2.20
2017-09-17T13:52:55.937Z,2.27
2017-09-17T13:55:25.106Z,2.53
2017-09-17T13:57:53.221Z,2.60
2017-09-17T14:00:22.422Z,2.50
2017-09-17T14:02:50.537Z,4.30
2017-09-17T14:05:21.628Z,5.00
2017-09-17T14:07:55.728Z,2.87
2017-09-17T14:10:26.832Z,2.50
2017-09-17T14:12:56.941Z,2.53
2017-09-17T14:15:25.133Z,2.83
2017-09-17T14:17:53.320Z,2.30
2017-09-17T14:20:22.466Z,2.73
2017-09-17T14:22:50.616Z,2.67
2017-09-17T14:25:22.396Z,2.60
2017-09-17T14:27:50.534Z,2.50
2017-09-17T14:30:18.694Z,2.77
2017-09-17T14:32:53.440Z,2.50
2017-09-17T14:35:22.510Z,2.13
2017-09-17T14:37:50.740Z,2.63
2017-09-17T14:40:19.061Z,3.67
2017-09-17T14:42:47.480Z,2.80
2017-09-17T14:45:15.756Z,2.40
2017-09-17T14:47:44.105Z,2.80
2017-09-17T14:50:14.497Z,2.93
2017-09-17T14:52:44.460Z,2.60
2017-09-17T14:55:12.685Z,3.13
2017-09-17T14:57:40.793Z,2.73
2017-09-17T15:00:08.892Z,3.03
2017-09-17T15:02:37.079Z,2.40
2017-09-17T15:05:05.211Z,2.50
2017-09-17T15:07:34.419Z,2.47
2017-09-17T15:10:02.509Z,2.90
2017-09-17T15:12:30.608Z,2.50
2017-09-17T15:14:59.020Z,2.57
2017-09-17T15:17:28.112Z,3.30
2017-09-17T15:19:56.990Z,2.80
2017-09-17T15:22:25.848Z,2.83
2017-09-17T15:24:54.058Z,2.13
2017-09-17T15:27:22.912Z,2.60
2017-09-17T15:29:51.481Z,2.30
2017-09-17T15:32:19.760Z,2.20
2017-09-17T15:34:49.433Z,2.40
2017-09-17T15:37:18.820Z,2.43
2017-09-17T16:15:29.090Z,2.90
2017-09-17T16:17:57.246Z,2.87
2017-09-17T16:20:34.807Z,2.40
2017-09-17T16:23:05.015Z,2.87
2017-09-17T16:25:34.654Z,2.60
2017-09-17T16:28:02.943Z,2.87
2017-09-17T16:30:31.090Z,2.47
2017-09-17T16:32:59.528Z,2.70
2017-09-17T16:35:28.892Z,4.10
2017-09-17T16:37:57.853Z,4.00
2017-09-17T16:40:25.960Z,2.77
2017-09-17T16:42:54.903Z,2.80
2017-09-17T16:45:23.974Z,2.90
2017-09-17T16:47:54.397Z,2.83
2017-09-17T16:50:23.315Z,2.33
2017-09-17T16:52:51.691Z,3.13
2017-09-17T16:55:19.869Z,2.40
2017-09-17T16:57:48.873Z,2.53
2017-09-17T17:00:17.959Z,2.20
2017-09-17T17:02:46.467Z,2.20
2017-09-17T17:05:14.696Z,2.70
2017-09-17T17:07:43.176Z,2.73
2017-09-17T17:10:11.305Z,2.60
2017-09-17T17:12:39.690Z,2.10
2017-09-17T17:15:07.905Z,2.63
2017-09-17T17:17:35.997Z,2.30
2017-09-17T17:20:04.152Z,2.60
2017-09-17T17:22:32.377Z,2.70
2017-09-17T17:25:02.767Z,2.67
2017-09-17T17:27:31.003Z,3.13
2017-09-17T17:29:59.116Z,3.57
2017-09-17T17:32:27.239Z,3.70
2017-09-17T17:34:55.354Z,4.80
2017-09-17T17:37:23.478Z,13.73
2017-09-17T17:39:52.167Z,9.10
2017-09-17T17:42:20.376Z,8.73
2017-09-17T17:44:48.510Z,5.70
2017-09-17T17:47:17.432Z,7.80
2017-09-17T17:49:46.668Z,4.50
2017-09-17T17:52:14.791Z,3.30
2017-09-17T17:54:42.915Z,4.40
2017-09-17T17:57:11.056Z,6.37
2017-09-17T17:59:39.388Z,6.20
2017-09-17T18:02:07.520Z,5.60
2017-09-17T18:04:36.767Z,4.30
2017-09-17T18:07:04.879Z,4.50
2017-09-17T18:09:33.088Z,3.80
2017-09-17T18:12:01.971Z,3.23
2017-09-17T18:14:30.894Z,3.37
2017-09-17T18:16:59.137Z,8.63
2017-09-17T18:19:28.089Z,4.17
2017-09-17T18:21:56.231Z,13.20
2017-09-17T18:24:24.363Z,3.37
2017-09-17T18:26:53.852Z,2.67
2017-09-17T18:29:21.957Z,2.30
2017-09-17T18:31:50.449Z,2.07
2017-09-17T18:34:19.400Z,1.47
2017-09-17T18:36:47.807Z,1.50
2017-09-17T18:39:18.697Z,2.40
2017-09-17T18:41:46.986Z,2.03
2017-09-17T18:44:16.966Z,2.27
2017-09-17T18:46:46.653Z,1.87
2017-09-17T18:49:17.437Z,2.20
2017-09-17T18:51:47.944Z,1.83
2017-09-17T18:54:17.182Z,1.93
2017-09-17T18:56:46.503Z,2.03
2017-09-17T18:59:16.861Z,2.00
2017-09-17T19:01:47.036Z,2.60
2017-09-17T19:04:15.507Z,2.10
2017-09-17T19:06:44.131Z,2.50
2017-09-17T19:09:14.290Z,2.63
2017-09-17T19:11:42.902Z,2.10
2017-09-17T19:14:12.897Z,2.50
2017-09-17T19:16:42.045Z,2.97
2017-09-17T19:19:10.938Z,2.77
2017-09-17T19:21:40.016Z,2.30
2017-09-17T19:24:08.219Z,2.60
2017-09-17T19:26:40.621Z,2.43
2017-09-17T19:29:09.989Z,2.63
2017-09-17T19:31:47.903Z,2.70
2017-09-17T19:34:17.632Z,2.57
2017-09-17T19:36:46.035Z,2.00
2017-09-17T19:39:14.372Z,2.10
2017-09-17T19:41:42.693Z,2.30
2017-09-17T19:44:10.841Z,2.50
2017-09-17T19:46:39.272Z,2.10
2017-09-17T19:49:07.507Z,2.63
2017-09-17T19:51:36.549Z,2.40
2017-09-17T19:54:04.754Z,2.30
2017-09-17T19:56:38.413Z,1.80
2017-09-17T19:59:07.578Z,2.40
2017-09-17T20:01:38.540Z,2.53
2017-09-17T20:04:07.572Z,2.13
2017-09-17T20:06:40.104Z,1.80
2017-09-17T20:09:10.301Z,2.27
2017-09-17T20:11:39.861Z,2.93
2017-09-17T20:14:08.115Z,3.00
2017-09-17T20:16:39.325Z,2.73
2017-09-17T20:19:08.728Z,2.20
2017-09-17T20:21:37.823Z,2.70
2017-09-17T20:24:06.076Z,2.63
2017-09-17T20:26:34.241Z,2.60
2017-09-17T20:29:03.114Z,3.17
2017-09-17T20:31:31.327Z,2.57
2017-09-17T20:33:59.889Z,2.80
2017-09-17T20:36:28.748Z,3.87
2017-09-17T20:38:59.316Z,3.70
2017-09-17T20:41:27.757Z,3.77
2017-09-17T20:43:55.905Z,4.00
2017-09-17T20:46:26.211Z,4.87
2017-09-17T20:48:54.374Z,6.37
2017-09-17T21:19:05.343Z,5.93
2017-09-17T21:21:35.540Z,5.40
2017-09-17T21:24:04.541Z,5.83
2017-09-17T21:26:32.838Z,5.60
2017-09-17T21:29:01.001Z,4.80
2017-09-17T21:31:30.074Z,5.10
2017-09-17T21:34:01.850Z,3.87
2017-09-17T21:36:36.789Z,4.70
2017-09-17T21:39:05.947Z,6.80
2017-09-17T21:41:38.460Z,6.37
2017-09-17T21:44:06.572Z,5.67
2017-09-17T21:46:35.010Z,6.40
2017-09-17T21:49:03.128Z,9.73
2017-09-17T21:51:31.216Z,8.00
2017-09-17T21:54:00.257Z,7.27
2017-09-17T21:56:28.349Z,6.83
2017-09-17T21:58:56.460Z,6.00
2017-09-17T22:01:24.587Z,5.60
2017-09-17T22:03:52.695Z,6.40
2017-09-17T22:06:20.881Z,5.60
2017-09-17T22:08:49.004Z,5.33
2017-09-17T22:11:18.074Z,5.40
2017-09-17T22:13:46.170Z,5.43
2017-09-17T22:16:14.276Z,4.83
2017-09-17T22:18:43.477Z,5.07
2017-09-17T22:21:11.560Z,5.73
2017-09-17T22:23:39.681Z,6.03
2017-09-17T22:26:07.787Z,6.03
2017-09-17T22:28:35.880Z,6.13
2017-09-17T22:31:04.020Z,5.70
2017-09-17T22:33:33.189Z,5.93
2017-09-17T22:36:02.107Z,5.80
2017-09-17T22:38:31.157Z,5.30
2017-09-17T22:41:00.040Z,5.57
2017-09-17T22:43:28.296Z,5.47
2017-09-17T22:45:56.393Z,6.23
2017-09-17T22:48:25.332Z,7.23
2017-09-17T22:50:53.823Z,6.73
2017-09-17T22:53:21.938Z,8.47
2017-09-17T22:55:50.016Z,7.30
2017-09-17T22:58:18.926Z,6.07
2017-09-17T23:00:47.024Z,7.87
2017-09-17T23:03:15.482Z,7.07
2017-09-17T23:05:43.650Z,6.33
2017-09-17T23:08:11.768Z,6.17
2017-09-17T23:10:39.917Z,6.27
2017-09-17T23:13:08.017Z,5.00
2017-09-17T23:15:36.110Z,6.20
2017-09-17T23:18:04.218Z,4.90
2017-09-17T23:20:32.413Z,4.40
2017-09-17T23:23:00.530Z,4.80
2017-09-17T23:25:28.639Z,4.03
2017-09-17T23:27:56.752Z,4.03
2017-09-17T23:30:24.850Z,5.33
2017-09-17T23:32:53.759Z,4.57
2017-09-17T23:35:21.849Z,3.67
2017-09-17T23:37:49.961Z,4.50
2017-09-17T23:40:18.193Z,5.07
2017-09-17T23:42:46.275Z,4.13
2017-09-17T23:45:15.224Z,3.70
2017-09-17T23:47:44.074Z,3.30
2017-09-17T23:50:12.201Z,3.43
2017-09-17T23:52:40.316Z,4.13
2017-09-17T23:55:08.388Z,4.20
2017-09-17T23:57:36.701Z,3.40
